createdAt,value
2023-04-13T00:01:37.275Z,8.99
2023-04-13T00:03:39.460Z,8.89
2023-04-13T00:05:41.390Z,8.79
2023-04-13T00:07:43.400Z,8.75
2023-04-13T00:09:47.906Z,8.70
2023-04-13T00:11:49.429Z,8.75
2023-04-13T00:13:51.100Z,8.78
2023-04-13T00:15:53.833Z,8.77
2023-04-13T00:17:55.413Z,8.77
2023-04-13T00:19:59.720Z,8.59
2023-04-13T00:22:01.233Z,8.56
2023-04-13T00:24:02.969Z,8.39
2023-04-13T00:26:04.679Z,8.41
2023-04-13T00:28:06.725Z,8.29
2023-04-13T00:30:09.886Z,7.96
2023-04-13T00:32:11.611Z,7.89
2023-04-13T00:34:13.107Z,7.86
2023-04-13T00:36:14.616Z,7.84
2023-04-13T00:38:16.123Z,7.95
2023-04-13T00:40:18.062Z,8.07
2023-04-13T00:42:19.966Z,8.17
2023-04-13T00:44:21.789Z,8.29
2023-04-13T00:46:23.936Z,8.33
2023-04-13T00:48:25.612Z,8.37
2023-04-13T00:50:27.123Z,8.39
2023-04-13T00:52:29.096Z,8.37
2023-04-13T00:54:31.757Z,8.35
2023-04-13T00:56:33.920Z,8.29
2023-04-13T00:58:36.102Z,8.27
2023-04-13T01:00:39.468Z,8.17
2023-04-13T01:02:42.602Z,8.18
2023-04-13T01:04:46.007Z,8.17
2023-04-13T01:06:54.529Z,8.21
2023-04-13T01:08:58.233Z,8.21
2023-04-13T01:11:04.322Z,8.16
2023-04-13T01:13:22.988Z,8.09
2023-04-13T01:15:26.124Z,8.04
2023-04-13T01:19:51.919Z,8.04
2023-04-13T01:21:54.784Z,8.07
2023-04-13T01:24:08.686Z,8.11
2023-04-13T01:26:10.250Z,8.04
2023-04-13T01:28:16.124Z,8.02
2023-04-13T01:30:24.445Z,8.06
2023-04-13T01:32:27.211Z,8.09
2023-04-13T01:34:28.659Z,8.08
2023-04-13T01:36:30.524Z,8.06
2023-04-13T01:38:31.977Z,8.03
2023-04-13T01:40:34.980Z,8.01
2023-04-13T01:42:36.906Z,8.00
2023-04-13T01:44:38.579Z,7.96
2023-04-13T01:46:43.276Z,7.97
2023-04-13T01:48:52.221Z,7.97
2023-04-13T01:51:04.054Z,7.95
2023-04-13T01:53:11.361Z,7.93
2023-04-13T01:55:13.732Z,7.94
2023-04-13T01:57:16.025Z,7.95
2023-04-13T01:59:17.533Z,7.99
2023-04-13T02:01:19.112Z,7.96
2023-04-13T02:03:22.663Z,7.95
2023-04-13T02:05:24.296Z,7.88
2023-04-13T02:07:25.833Z,7.80
2023-04-13T02:09:28.333Z,7.83
2023-04-13T02:11:29.806Z,7.82
2023-04-13T02:13:31.365Z,7.79
2023-04-13T02:15:36.221Z,7.72
2023-04-13T02:17:37.703Z,7.63
2023-04-13T02:19:39.256Z,7.58
2023-04-13T02:21:42.227Z,7.51
2023-04-13T02:23:43.871Z,7.51
2023-04-13T02:25:47.965Z,7.52
2023-04-13T02:27:50.069Z,7.48
2023-04-13T02:29:52.526Z,7.48
2023-04-13T02:31:54.074Z,7.45
2023-04-13T02:33:55.575Z,7.42
2023-04-13T02:35:57.449Z,7.38
2023-04-13T02:37:58.927Z,7.37
2023-04-13T02:40:00.416Z,7.36
2023-04-13T02:42:03.068Z,7.42
2023-04-13T02:44:04.636Z,7.45
2023-04-13T02:46:06.523Z,7.46
2023-04-13T02:48:09.649Z,7.45
2023-04-13T02:50:11.896Z,7.41
2023-04-13T02:52:13.439Z,7.41
2023-04-13T02:54:15.764Z,7.47
2023-04-13T02:56:17.192Z,7.49
2023-04-13T02:58:21.484Z,7.52
2023-04-13T03:00:23.921Z,7.48
2023-04-13T03:02:27.183Z,7.42
2023-04-13T03:04:29.388Z,7.37
2023-04-13T03:06:31.433Z,7.34
2023-04-13T03:08:32.956Z,7.35
2023-04-13T03:10:34.706Z,7.32
2023-04-13T03:12:36.951Z,7.29
2023-04-13T03:14:38.465Z,7.31
2023-04-13T03:16:40.021Z,7.30
2023-04-13T03:18:41.547Z,7.29
2023-04-13T03:20:44.205Z,7.27
2023-04-13T03:22:46.244Z,7.28
2023-04-13T03:24:47.813Z,7.20
2023-04-13T03:26:49.263Z,7.14
2023-04-13T03:28:51.038Z,7.08
2023-04-13T03:30:52.729Z,7.14
2023-04-13T03:32:54.277Z,7.17
2023-04-13T03:34:55.782Z,7.14
2023-04-13T03:36:57.307Z,7.12
2023-04-13T03:38:58.848Z,7.13
2023-04-13T03:41:00.718Z,7.19
2023-04-13T03:43:02.271Z,7.20
2023-04-13T03:45:07.090Z,7.26
2023-04-13T03:47:09.801Z,7.28
2023-04-13T03:49:11.422Z,7.33
2023-04-13T03:51:12.977Z,7.17
2023-04-13T03:53:14.602Z,7.10
2023-04-13T03:55:16.255Z,7.17
2023-04-13T03:57:17.812Z,7.21
2023-04-13T03:59:19.379Z,7.33
2023-04-13T04:01:21.241Z,7.33
2023-04-13T04:03:24.471Z,7.41
2023-04-13T04:05:26.300Z,7.37
2023-04-13T04:07:27.971Z,7.26
2023-04-13T04:09:29.797Z,7.27
2023-04-13T04:11:31.365Z,7.31
2023-04-13T04:13:32.877Z,7.38
2023-04-13T04:15:34.391Z,7.39
2023-04-13T04:17:37.327Z,7.38
2023-04-13T04:19:40.400Z,7.46
2023-04-13T04:21:47.035Z,7.42
2023-04-13T04:23:48.728Z,7.42
2023-04-13T04:25:50.243Z,7.49
2023-04-13T04:27:57.882Z,7.58
2023-04-13T04:30:00.996Z,7.61
2023-04-13T04:32:03.359Z,7.65
2023-04-13T04:34:05.029Z,7.72
2023-04-13T04:36:07.219Z,7.69
2023-04-13T04:38:09.367Z,7.75
2023-04-13T04:40:11.220Z,7.76
2023-04-13T04:42:12.704Z,7.79
2023-04-13T04:44:16.840Z,7.89
2023-04-13T04:46:18.625Z,7.98
2023-04-13T04:48:20.481Z,8.03
2023-04-13T04:50:21.995Z,7.95
2023-04-13T04:52:25.262Z,8.02
2023-04-13T04:54:26.903Z,7.88
2023-04-13T04:56:28.995Z,7.86
2023-04-13T04:58:30.686Z,7.93
2023-04-13T05:00:32.246Z,8.03
2023-04-13T05:02:33.774Z,8.20
2023-04-13T05:04:35.325Z,8.29
2023-04-13T05:06:36.933Z,8.40
2023-04-13T05:08:38.880Z,8.46
2023-04-13T05:10:46.102Z,8.52
2023-04-13T05:12:47.624Z,8.61
2023-04-13T05:14:49.107Z,8.73
2023-04-13T05:16:51.257Z,8.74
2023-04-13T05:18:52.801Z,8.74
2023-04-13T05:20:54.301Z,8.70
2023-04-13T05:22:55.859Z,8.60
2023-04-13T05:24:57.678Z,8.61
2023-04-13T05:26:59.161Z,8.72
2023-04-13T05:29:00.833Z,8.77
2023-04-13T05:31:02.989Z,8.30
2023-04-13T05:33:06.682Z,8.11
2023-04-13T05:35:08.497Z,8.02
2023-04-13T05:37:11.519Z,7.95
2023-04-13T05:39:13.033Z,7.99
2023-04-13T05:41:14.547Z,8.00
2023-04-13T05:43:16.142Z,8.00
2023-04-13T05:45:17.744Z,7.96
2023-04-13T05:47:21.521Z,8.16
2023-04-13T05:49:23.084Z,8.38
2023-04-13T05:51:24.559Z,8.55
2023-04-13T05:53:26.362Z,8.64
2023-04-13T05:55:27.853Z,8.59
2023-04-13T05:57:29.482Z,8.66
2023-04-13T05:59:31.047Z,8.82
2023-04-13T06:01:32.574Z,9.00
2023-04-13T06:03:34.663Z,8.99
2023-04-13T06:05:36.731Z,8.84
2023-04-13T06:07:38.223Z,8.54
2023-04-13T06:09:39.741Z,8.19
2023-04-13T06:11:41.863Z,7.97
2023-04-13T06:13:43.606Z,8.31
2023-04-13T06:15:45.030Z,8.63
2023-04-13T06:17:46.675Z,8.90
2023-04-13T06:19:48.264Z,9.10
2023-04-13T06:21:49.695Z,9.29
2023-04-13T06:23:51.265Z,9.50
2023-04-13T06:25:52.771Z,9.69
2023-04-13T06:27:54.521Z,9.96
2023-04-13T06:29:58.126Z,10.09
2023-04-13T06:31:59.598Z,10.24
2023-04-13T06:34:01.980Z,10.22
2023-04-13T06:36:03.608Z,10.33
2023-04-13T06:38:05.451Z,10.47
2023-04-13T06:40:11.098Z,10.51
2023-04-13T06:42:13.662Z,10.63
2023-04-13T06:44:15.211Z,10.84
2023-04-13T06:46:19.087Z,10.66
2023-04-13T06:48:21.219Z,10.72
2023-04-13T06:50:22.714Z,10.81
2023-04-13T06:52:24.264Z,10.79
2023-04-13T06:54:25.919Z,10.84
2023-04-13T06:56:27.379Z,10.72
2023-04-13T06:58:29.076Z,10.59
2023-04-13T07:00:30.985Z,10.45
2023-04-13T07:02:32.668Z,10.14
2023-04-13T07:04:34.469Z,10.32
2023-04-13T07:06:36.510Z,10.64
2023-04-13T07:08:38.060Z,10.85
2023-04-13T07:10:41.079Z,10.84
2023-04-13T07:12:42.611Z,10.67
2023-04-13T07:14:46.367Z,10.39
2023-04-13T07:16:47.917Z,10.45
2023-04-13T07:18:49.408Z,10.65
2023-04-13T07:20:51.066Z,10.93
2023-04-13T07:22:52.627Z,11.10
2023-04-13T07:24:54.101Z,11.26
2023-04-13T07:26:57.728Z,11.50
2023-04-13T07:28:59.510Z,11.73
2023-04-13T07:31:02.654Z,11.30
2023-04-13T07:33:04.220Z,11.20
2023-04-13T07:35:05.773Z,11.35
2023-04-13T07:37:07.256Z,11.45
2023-04-13T07:39:09.730Z,11.41
2023-04-13T07:41:11.239Z,11.43
2023-04-13T07:43:12.792Z,11.64
2023-04-13T07:45:15.577Z,11.95
2023-04-13T07:47:17.112Z,12.18
2023-04-13T07:49:18.699Z,11.96
2023-04-13T07:51:20.236Z,11.66
2023-04-13T07:53:21.757Z,11.52
2023-04-13T07:55:23.212Z,11.37
2023-04-13T07:57:24.674Z,11.58
2023-04-13T07:59:26.271Z,11.85
2023-04-13T08:01:27.809Z,12.09
2023-04-13T08:03:35.531Z,12.28
2023-04-13T08:05:37.156Z,12.07
2023-04-13T08:07:38.621Z,11.91
2023-04-13T08:09:40.591Z,12.03
2023-04-13T08:11:42.501Z,12.34
2023-04-13T08:13:44.050Z,12.51
2023-04-13T08:15:45.908Z,12.75
2023-04-13T08:17:47.602Z,13.11
2023-04-13T08:19:49.106Z,13.36
2023-04-13T08:21:51.348Z,13.54
2023-04-13T08:23:52.972Z,13.69
2023-04-13T08:25:55.057Z,13.83
2023-04-13T08:27:56.599Z,14.05
2023-04-13T08:30:01.870Z,14.19
2023-04-13T08:32:03.717Z,14.34
2023-04-13T08:34:05.284Z,14.47
2023-04-13T08:36:07.732Z,14.47
2023-04-13T08:38:09.464Z,14.53
2023-04-13T08:40:12.204Z,14.42
2023-04-13T08:42:14.052Z,14.39
2023-04-13T08:44:15.795Z,14.40
2023-04-13T08:46:21.500Z,14.42
2023-04-13T08:48:23.774Z,14.58
2023-04-13T08:50:25.880Z,14.83
2023-04-13T08:52:28.463Z,15.06
2023-04-13T08:54:30.007Z,14.94
2023-04-13T08:56:44.471Z,14.94
2023-04-13T08:58:48.019Z,15.09
2023-04-13T09:00:50.476Z,15.28
2023-04-13T09:03:04.755Z,15.07
2023-04-13T09:05:16.353Z,14.94
2023-04-13T09:07:22.113Z,14.56
2023-04-13T09:09:23.609Z,14.48
2023-04-13T09:11:25.615Z,14.69
2023-04-13T09:13:27.193Z,14.55
2023-04-13T09:15:28.625Z,14.74
2023-04-13T09:17:32.321Z,15.04
2023-04-13T09:19:33.952Z,15.22
2023-04-13T09:21:36.497Z,15.34
2023-04-13T09:23:37.943Z,15.50
2023-04-13T09:25:39.595Z,15.54
2023-04-13T09:27:41.342Z,15.61
2023-04-13T09:29:48.492Z,15.91
2023-04-13T09:31:49.963Z,15.94
2023-04-13T09:33:52.114Z,15.96
2023-04-13T09:35:53.602Z,15.67
2023-04-13T09:37:56.169Z,15.41
2023-04-13T09:40:08.389Z,15.51
2023-04-13T09:42:10.363Z,15.54
2023-04-13T09:44:18.900Z,15.88
2023-04-13T09:46:20.453Z,16.33
2023-04-13T09:48:22.658Z,16.63
2023-04-13T09:50:28.314Z,16.54
2023-04-13T09:52:29.921Z,16.76
2023-04-13T09:54:31.882Z,16.94
2023-04-13T09:56:43.301Z,17.21
2023-04-13T09:58:45.618Z,17.30
2023-04-13T10:00:47.139Z,17.53
2023-04-13T10:02:50.236Z,17.30
2023-04-13T10:04:51.848Z,16.93
2023-04-13T10:06:53.562Z,17.01
2023-04-13T10:08:55.019Z,16.58
2023-04-13T10:10:56.479Z,16.59
2023-04-13T10:12:58.320Z,16.70
2023-04-13T10:15:04.382Z,16.96
2023-04-13T10:17:05.963Z,17.13
2023-04-13T10:19:11.924Z,17.32
2023-04-13T10:21:13.846Z,17.37
2023-04-13T10:23:15.468Z,17.20
2023-04-13T10:25:29.608Z,16.83
2023-04-13T10:27:35.937Z,17.17
2023-04-13T10:29:37.420Z,17.42
2023-04-13T10:31:39.758Z,17.61
2023-04-13T10:33:48.358Z,17.83
2023-04-13T10:35:57.908Z,18.14
2023-04-13T10:37:59.413Z,17.92
2023-04-13T10:40:08.049Z,17.71
2023-04-13T10:42:09.986Z,17.63
2023-04-13T10:44:11.490Z,17.56
2023-04-13T10:46:14.111Z,17.39
2023-04-13T10:48:21.224Z,17.49
2023-04-13T10:50:23.496Z,17.28
2023-04-13T10:52:24.955Z,17.32
2023-04-13T10:54:30.269Z,17.59
2023-04-13T10:56:31.880Z,17.70
2023-04-13T10:58:34.463Z,17.76
2023-04-13T11:00:44.884Z,18.03
2023-04-13T11:02:53.606Z,18.23
2023-04-13T11:04:57.100Z,18.32
2023-04-13T11:06:58.597Z,18.14
2023-04-13T11:09:01.723Z,18.06
2023-04-13T11:11:03.264Z,18.09
2023-04-13T11:13:05.168Z,18.16
2023-04-13T11:15:06.983Z,18.17
2023-04-13T11:17:13.475Z,18.33
2023-04-13T11:19:15.417Z,18.54
2023-04-13T11:21:17.172Z,18.70
2023-04-13T11:23:20.084Z,18.98
2023-04-13T11:25:21.591Z,19.07
2023-04-13T11:27:23.660Z,19.27
2023-04-13T11:29:25.248Z,19.43
2023-04-13T11:31:40.038Z,19.59
2023-04-13T11:33:41.652Z,19.23
2023-04-13T11:35:49.877Z,19.20
2023-04-13T11:37:53.102Z,19.14
2023-04-13T11:39:54.882Z,19.11
2023-04-13T11:41:57.318Z,19.14
2023-04-13T11:44:02.659Z,19.21
2023-04-13T11:46:04.391Z,19.16
2023-04-13T11:48:07.857Z,19.44
2023-04-13T11:50:10.596Z,19.50
2023-04-13T11:52:12.321Z,19.45
2023-04-13T11:54:13.825Z,19.52
2023-04-13T11:56:15.612Z,19.30
2023-04-13T11:58:18.785Z,19.18
2023-04-13T12:00:24.780Z,19.16
2023-04-13T12:04:36.174Z,19.47
2023-04-13T12:06:38.696Z,19.52
2023-04-13T12:08:40.603Z,19.54
2023-04-13T12:10:54.659Z,19.72
2023-04-13T12:13:17.413Z,19.82
2023-04-13T12:15:40.219Z,19.90
2023-04-13T12:17:57.662Z,19.92
2023-04-13T12:20:04.621Z,19.83
2023-04-13T12:22:07.547Z,19.73
2023-04-13T12:24:11.457Z,19.81
2023-04-13T12:26:48.754Z,19.96
2023-04-13T12:28:35.658Z,20.05
2023-04-13T12:30:37.101Z,20.03
2023-04-13T12:32:46.043Z,19.97
2023-04-13T12:34:49.053Z,20.12
2023-04-13T12:36:50.821Z,20.27
2023-04-13T12:38:52.304Z,20.32
2023-04-13T12:41:03.183Z,20.36
2023-04-13T12:43:04.780Z,20.43
2023-04-13T12:45:06.622Z,20.48
2023-04-13T12:47:08.185Z,20.28
2023-04-13T12:49:09.699Z,20.34
2023-04-13T12:51:11.359Z,20.36
2023-04-13T12:53:12.870Z,20.36
2023-04-13T12:55:14.514Z,20.36
2023-04-13T12:57:17.945Z,20.11
2023-04-13T12:59:23.155Z,20.17
2023-04-13T13:01:25.223Z,20.22
2023-04-13T13:03:27.266Z,20.30
2023-04-13T13:05:28.836Z,20.26
2023-04-13T13:07:30.343Z,20.21
2023-04-13T13:09:32.143Z,20.13
2023-04-13T13:11:33.656Z,20.25
2023-04-13T13:13:35.309Z,20.30
2023-04-13T13:15:36.920Z,20.34
2023-04-13T13:17:41.625Z,20.37
2023-04-13T13:19:43.113Z,20.46
2023-04-13T13:21:44.615Z,20.49
2023-04-13T13:23:46.323Z,20.51
2023-04-13T13:26:10.384Z,20.34
2023-04-13T13:28:14.654Z,20.18
2023-04-13T13:30:16.788Z,20.21
2023-04-13T13:32:19.999Z,20.33
2023-04-13T13:34:21.859Z,20.45
2023-04-13T13:36:23.358Z,20.58
2023-04-13T13:38:25.092Z,20.72
2023-04-13T13:40:26.600Z,20.71
2023-04-13T13:42:32.453Z,20.76
2023-04-13T13:44:42.003Z,20.83
2023-04-13T13:46:43.741Z,20.94
2023-04-13T13:48:45.310Z,20.95
2023-04-13T13:50:46.802Z,20.90
2023-04-13T13:52:59.716Z,20.76
2023-04-13T13:55:04.869Z,20.44
2023-04-13T13:57:06.363Z,20.46
2023-04-13T13:59:08.767Z,20.41
2023-04-13T14:01:10.384Z,20.32
2023-04-13T14:03:13.681Z,20.49
2023-04-13T14:05:15.720Z,20.65
2023-04-13T14:07:17.220Z,20.89
2023-04-13T14:09:18.983Z,21.15
2023-04-13T14:11:20.541Z,21.33
2023-04-13T14:13:21.968Z,21.46
2023-04-13T14:15:23.524Z,21.56
2023-04-13T14:17:24.976Z,21.57
2023-04-13T14:19:27.171Z,21.77
2023-04-13T14:21:28.716Z,21.74
2023-04-13T14:23:31.007Z,21.71
2023-04-13T14:25:32.544Z,21.82
2023-04-13T14:27:34.083Z,21.85
2023-04-13T14:29:35.506Z,22.05
2023-04-13T14:31:37.097Z,22.20
2023-04-13T14:33:38.611Z,22.39
2023-04-13T14:35:40.326Z,22.55
2023-04-13T14:37:41.940Z,22.38
2023-04-13T14:39:43.496Z,22.35
2023-04-13T14:41:45.156Z,22.39
2023-04-13T14:43:46.620Z,22.32
2023-04-13T14:45:52.021Z,22.31
2023-04-13T14:47:56.582Z,22.33
2023-04-13T14:49:58.341Z,22.21
2023-04-13T14:51:59.775Z,22.14
2023-04-13T14:54:01.658Z,22.06
2023-04-13T14:56:03.165Z,21.77
2023-04-13T14:58:05.456Z,21.54
2023-04-13T15:00:09.693Z,21.40
2023-04-13T15:02:12.116Z,21.26
2023-04-13T15:04:13.941Z,21.21
2023-04-13T15:06:15.569Z,21.12
2023-04-13T15:08:17.725Z,21.15
2023-04-13T15:10:19.574Z,21.16
2023-04-13T15:12:21.218Z,21.21
2023-04-13T15:14:22.720Z,21.13
2023-04-13T15:16:24.259Z,21.06
2023-04-13T15:18:25.978Z,21.03
2023-04-13T15:20:27.722Z,21.13
2023-04-13T15:22:31.039Z,21.16
2023-04-13T15:24:32.610Z,21.15
2023-04-13T15:26:37.947Z,21.09
2023-04-13T15:28:39.439Z,21.07
2023-04-13T15:30:43.166Z,21.00
2023-04-13T15:32:44.688Z,20.99
2023-04-13T15:34:46.175Z,20.87
2023-04-13T15:36:47.883Z,20.85
2023-04-13T15:38:49.430Z,20.73
2023-04-13T15:40:51.016Z,20.56
2023-04-13T15:42:52.604Z,20.50
2023-04-13T15:44:55.240Z,20.40
2023-04-13T15:46:56.869Z,20.53
2023-04-13T15:48:59.671Z,20.68
2023-04-13T15:51:01.818Z,20.79
2023-04-13T15:53:03.399Z,21.04
2023-04-13T15:55:05.763Z,21.17
2023-04-13T15:57:07.318Z,21.38
2023-04-13T15:59:08.816Z,21.42
2023-04-13T16:01:10.788Z,21.44
2023-04-13T16:03:12.585Z,21.53
2023-04-13T16:05:14.446Z,21.54
2023-04-13T16:07:16.386Z,21.69
2023-04-13T16:09:18.679Z,21.74
2023-04-13T16:11:20.830Z,21.83
2023-04-13T16:13:22.673Z,21.74
2023-04-13T16:15:24.353Z,21.63
2023-04-13T16:17:32.289Z,21.58
2023-04-13T16:19:34.371Z,21.66
2023-04-13T16:21:35.814Z,21.61
2023-04-13T16:23:37.449Z,21.32
2023-04-13T16:25:39.245Z,21.17
2023-04-13T16:27:43.534Z,21.06
2023-04-13T16:29:45.310Z,20.92
2023-04-13T16:31:47.157Z,20.77
2023-04-13T16:33:48.862Z,20.71
2023-04-13T16:35:51.356Z,20.64
2023-04-13T16:37:53.002Z,20.52
2023-04-13T16:39:54.513Z,20.37
2023-04-13T16:41:56.009Z,20.25
2023-04-13T16:43:58.923Z,20.20
2023-04-13T16:46:00.798Z,20.16
2023-04-13T16:48:02.487Z,20.08
2023-04-13T16:50:04.785Z,19.99
2023-04-13T16:52:06.526Z,19.87
2023-04-13T16:54:11.631Z,19.80
2023-04-13T16:56:14.198Z,19.71
2023-04-13T16:58:18.731Z,19.61
2023-04-13T17:00:20.504Z,19.57
2023-04-13T17:02:31.234Z,19.44
2023-04-13T17:04:33.379Z,19.33
2023-04-13T17:06:35.997Z,19.23
2023-04-13T17:08:37.474Z,19.13
2023-04-13T17:10:39.008Z,19.02
2023-04-13T17:12:40.601Z,19.00
2023-04-13T17:14:43.268Z,18.95
2023-04-13T17:16:44.797Z,18.92
2023-04-13T17:18:46.381Z,18.87
2023-04-13T17:20:54.814Z,18.86
2023-04-13T17:22:57.991Z,18.82
2023-04-13T17:24:59.571Z,18.76
2023-04-13T17:27:01.356Z,18.70
2023-04-13T17:29:03.065Z,18.67
2023-04-13T17:31:04.916Z,18.66
2023-04-13T17:33:07.108Z,18.63
2023-04-13T17:35:08.750Z,18.62
2023-04-13T17:37:10.517Z,18.63
2023-04-13T17:39:11.950Z,18.57
2023-04-13T17:41:13.449Z,18.58
2023-04-13T17:43:15.304Z,18.52
2023-04-13T17:45:18.511Z,18.49
2023-04-13T17:47:20.237Z,18.51
2023-04-13T17:49:22.206Z,18.52
2023-04-13T17:51:23.663Z,18.52
2023-04-13T17:53:26.180Z,18.44
2023-04-13T17:55:27.716Z,18.41
2023-04-13T17:57:29.830Z,18.37
2023-04-13T17:59:31.303Z,18.35
2023-04-13T18:01:32.878Z,18.31
2023-04-13T18:03:34.868Z,18.32
2023-04-13T18:05:36.700Z,18.29
2023-04-13T18:07:38.304Z,18.26
2023-04-13T18:09:39.819Z,18.28
2023-04-13T18:11:41.279Z,18.28
2023-04-13T18:13:42.735Z,18.29
2023-04-13T18:15:48.383Z,18.30
2023-04-13T18:17:49.978Z,18.24
2023-04-13T18:19:52.162Z,18.20
2023-04-13T18:21:53.711Z,18.22
2023-04-13T18:23:55.259Z,18.20
2023-04-13T18:25:56.733Z,18.21
2023-04-13T18:27:58.185Z,18.20
2023-04-13T18:29:59.661Z,18.16
2023-04-13T18:32:01.179Z,18.19
2023-04-13T18:34:03.196Z,18.20
2023-04-13T18:36:04.969Z,18.19
2023-04-13T18:38:06.514Z,18.20
2023-04-13T18:40:08.571Z,18.23
2023-04-13T18:42:10.145Z,18.19
2023-04-13T18:44:11.671Z,18.23
2023-04-13T18:46:13.298Z,18.22
2023-04-13T18:48:14.917Z,18.19
2023-04-13T18:50:16.349Z,18.17
2023-04-13T18:52:17.796Z,18.11
2023-04-13T18:54:19.376Z,18.09
2023-04-13T18:56:20.893Z,18.07
2023-04-13T18:58:22.522Z,18.05
2023-04-13T19:00:24.134Z,18.06
2023-04-13T19:02:25.873Z,18.04
2023-04-13T19:04:27.686Z,18.04
2023-04-13T19:06:29.340Z,18.04
2023-04-13T19:08:30.834Z,18.03
2023-04-13T19:10:32.416Z,18.06
2023-04-13T19:12:34.588Z,18.05
2023-04-13T19:14:36.278Z,18.02
2023-04-13T19:16:38.068Z,17.98
2023-04-13T19:18:39.580Z,17.97
2023-04-13T19:20:41.145Z,17.93
2023-04-13T19:22:42.931Z,17.65
2023-04-13T19:24:44.428Z,17.45
2023-04-13T19:26:45.965Z,17.39
2023-04-13T19:28:48.376Z,17.42
2023-04-13T19:30:49.866Z,17.44
2023-04-13T19:32:51.570Z,17.19
2023-04-13T19:34:53.181Z,17.00
2023-04-13T19:36:54.715Z,16.95
2023-04-13T19:38:56.484Z,16.84
2023-04-13T19:40:58.005Z,16.50
2023-04-13T19:43:00.265Z,16.11
2023-04-13T19:45:01.942Z,15.91
2023-04-13T19:47:03.722Z,15.72
2023-04-13T19:49:05.348Z,15.68
2023-04-13T19:51:06.878Z,15.63
2023-04-13T19:53:08.542Z,15.65
2023-04-13T19:55:11.031Z,15.77
2023-04-13T19:57:13.081Z,15.90
2023-04-13T19:59:14.580Z,16.04
2023-04-13T20:01:16.794Z,16.11
2023-04-13T20:03:20.623Z,15.67
2023-04-13T20:05:22.459Z,15.14
2023-04-13T20:07:23.908Z,14.80
2023-04-13T20:09:25.447Z,14.83
2023-04-13T20:11:26.975Z,14.97
2023-04-13T20:13:28.454Z,15.11
2023-04-13T20:15:33.089Z,15.02
2023-04-13T20:17:34.685Z,14.92
2023-04-13T20:19:36.771Z,14.77
2023-04-13T20:21:38.541Z,14.87
2023-04-13T20:23:40.017Z,15.02
2023-04-13T20:25:41.850Z,15.21
2023-04-13T20:27:44.107Z,15.37
2023-04-13T20:29:45.615Z,15.24
2023-04-13T20:31:47.202Z,15.25
2023-04-13T20:33:49.021Z,15.28
2023-04-13T20:35:50.562Z,15.23
2023-04-13T20:37:52.198Z,15.22
2023-04-13T20:39:53.754Z,15.22
2023-04-13T20:41:55.931Z,15.22
2023-04-13T20:43:58.769Z,15.06
2023-04-13T20:46:00.844Z,14.69
2023-04-13T20:48:48.326Z,14.48
2023-04-13T20:50:26.964Z,14.66
2023-04-13T20:52:31.562Z,14.66
2023-04-13T20:54:33.184Z,14.49
2023-04-13T20:56:34.775Z,14.49
2023-04-13T20:58:37.479Z,14.63
2023-04-13T21:00:38.987Z,14.81
2023-04-13T21:02:41.422Z,14.47
2023-04-13T21:04:43.078Z,14.48
2023-04-13T21:06:45.094Z,14.64
2023-04-13T21:08:46.581Z,14.77
2023-04-13T21:10:48.077Z,14.67
2023-04-13T21:12:49.610Z,14.69
2023-04-13T21:14:51.095Z,14.79
2023-04-13T21:16:55.725Z,14.88
2023-04-13T21:18:57.474Z,14.92
2023-04-13T21:20:59.000Z,14.47
2023-04-13T21:23:00.494Z,14.43
2023-04-13T21:25:03.674Z,14.52
2023-04-13T21:27:05.531Z,14.63
2023-04-13T21:29:07.708Z,14.74
2023-04-13T21:31:09.154Z,14.66
2023-04-13T21:33:10.707Z,14.71
2023-04-13T21:35:12.392Z,14.80
2023-04-13T21:37:13.898Z,14.71
2023-04-13T21:39:16.028Z,14.61
2023-04-13T21:41:18.233Z,14.66
2023-04-13T21:43:19.920Z,14.71
2023-04-13T21:45:21.632Z,14.80
2023-04-13T21:47:23.436Z,14.81
2023-04-13T21:49:24.903Z,14.80
2023-04-13T21:51:27.530Z,14.43
2023-04-13T21:53:29.057Z,13.93
2023-04-13T21:55:30.748Z,14.07
2023-04-13T21:57:32.431Z,14.24
2023-04-13T21:59:34.004Z,14.37
2023-04-13T22:01:35.679Z,14.45
2023-04-13T22:03:37.938Z,14.55
2023-04-13T22:05:40.505Z,14.52
2023-04-13T22:07:43.487Z,14.27
2023-04-13T22:09:45.125Z,14.30
2023-04-13T22:11:46.662Z,14.38
2023-04-13T22:13:48.156Z,14.47
2023-04-13T22:15:49.725Z,14.50
2023-04-13T22:17:51.622Z,14.57
2023-04-13T22:19:53.165Z,14.36
2023-04-13T22:21:54.672Z,14.25
2023-04-13T22:23:56.148Z,14.27
2023-04-13T22:26:03.608Z,14.34
2023-04-13T22:28:05.395Z,14.42
2023-04-13T22:30:07.423Z,14.53
2023-04-13T22:32:08.932Z,14.52
2023-04-13T22:34:10.674Z,14.54
2023-04-13T22:36:19.844Z,14.56
2023-04-13T22:38:21.512Z,14.37
2023-04-13T22:40:23.000Z,14.30
2023-04-13T22:42:24.561Z,14.40
2023-04-13T22:44:26.121Z,14.37
2023-04-13T22:46:27.607Z,14.13
2023-04-13T22:48:29.622Z,14.08
2023-04-13T22:50:31.349Z,14.17
2023-04-13T22:52:32.898Z,14.20
2023-04-13T22:54:34.403Z,14.14
2023-04-13T22:56:35.984Z,14.20
2023-04-13T22:58:37.548Z,13.94
2023-04-13T23:00:39.076Z,13.54
2023-04-13T23:02:41.131Z,13.67
2023-04-13T23:04:42.879Z,13.80
2023-04-13T23:06:44.480Z,13.99
2023-04-13T23:08:47.545Z,14.14
2023-04-13T23:10:49.130Z,14.26
2023-04-13T23:12:50.646Z,14.21
2023-04-13T23:14:52.240Z,14.15
2023-04-13T23:16:53.743Z,14.16
2023-04-13T23:18:55.968Z,13.80
2023-04-13T23:20:57.400Z,13.85
2023-04-13T23:22:59.039Z,13.97
2023-04-13T23:25:00.800Z,14.09
2023-04-13T23:27:02.644Z,14.18
2023-04-13T23:29:04.238Z,14.11
2023-04-13T23:31:06.191Z,14.08
2023-04-13T23:33:07.833Z,14.13
2023-04-13T23:35:09.435Z,14.14
2023-04-13T23:37:11.522Z,14.20
2023-04-13T23:39:13.109Z,14.21
2023-04-13T23:41:14.707Z,14.26
2023-04-13T23:43:16.409Z,14.32
2023-04-13T23:45:18.137Z,14.37
2023-04-13T23:47:19.641Z,14.18
2023-04-13T23:49:21.304Z,13.63
2023-04-13T23:51:23.036Z,13.63
2023-04-13T23:53:24.720Z,13.68
2023-04-13T23:55:26.296Z,13.82
2023-04-13T23:57:27.829Z,13.95
2023-04-13T23:59:29.307Z,14.02
